sensor_id;sensor_type;location;lat;lon;timestamp;temperature;humidity
8676;DHT22;4375;52.486;13.424;2023-03-01T00:01:14;1.90;99.90
8676;DHT22;4375;52.486;13.424;2023-03-01T00:03:41;1.90;99.90
8676;DHT22;4375;52.486;13.424;2023-03-01T00:06:08;1.90;99.90
8676;DHT22;4375;52.486;13.424;2023-03-01T00:08:35;1.90;99.90
8676;DHT22;4375;52.486;13.424;2023-03-01T00:11:05;1.90;99.90
8676;DHT22;4375;52.486;13.424;2023-03-01T00:13:32;1.80;99.90
8676;DHT22;4375;52.486;13.424;2023-03-01T00:15:58;1.90;99.90
8676;DHT22;4375;52.486;13.424;2023-03-01T00:18:24;1.80;99.90
8676;DHT22;4375;52.486;13.424;2023-03-01T00:20:53;1.80;99.90
8676;DHT22;4375;52.486;13.424;2023-03-01T00:23:20;1.80;99.90
8676;DHT22;4375;52.486;13.424;2023-03-01T00:25:46;1.90;99.90
8676;DHT22;4375;52.486;13.424;2023-03-01T00:28:12;1.90;99.90
8676;DHT22;4375;52.486;13.424;2023-03-01T00:30:37;1.80;99.90
8676;DHT22;4375;52.486;13.424;2023-03-01T00:33:03;1.80;99.90
8676;DHT22;4375;52.486;13.424;2023-03-01T00:35:29;1.80;99.90
8676;DHT22;4375;52.486;13.424;2023-03-01T00:37:56;1.90;99.90
8676;DHT22;4375;52.486;13.424;2023-03-01T00:40:26;1.80;99.90
8676;DHT22;4375;52.486;13.424;2023-03-01T00:42:52;1.70;99.90
8676;DHT22;4375;52.486;13.424;2023-03-01T00:45:17;1.70;99.90
8676;DHT22;4375;52.486;13.424;2023-03-01T00:47:46;1.70;99.90
8676;DHT22;4375;52.486;13.424;2023-03-01T00:50:12;1.80;99.90
8676;DHT22;4375;52.486;13.424;2023-03-01T00:52:38;1.80;99.90
8676;DHT22;4375;52.486;13.424;2023-03-01T00:55:04;1.80;99.90
8676;DHT22;4375;52.486;13.424;2023-03-01T00:57:30;1.70;99.90
8676;DHT22;4375;52.486;13.424;2023-03-01T00:59:56;1.60;99.90
8676;DHT22;4375;52.486;13.424;2023-03-01T01:02:22;1.60;99.90
8676;DHT22;4375;52.486;13.424;2023-03-01T01:04:48;1.50;99.90
8676;DHT22;4375;52.486;13.424;2023-03-01T01:07:14;1.40;99.90
8676;DHT22;4375;52.486;13.424;2023-03-01T01:09:41;1.40;99.90
8676;DHT22;4375;52.486;13.424;2023-03-01T01:12:07;1.40;99.90
8676;DHT22;4375;52.486;13.424;2023-03-01T01:14:33;1.40;99.90
8676;DHT22;4375;52.486;13.424;2023-03-01T01:16:58;1.40;99.90
8676;DHT22;4375;52.486;13.424;2023-03-01T01:19:25;1.40;99.90
8676;DHT22;4375;52.486;13.424;2023-03-01T01:21:50;1.40;99.90
8676;DHT22;4375;52.486;13.424;2023-03-01T01:24:17;1.40;99.90
8676;DHT22;4375;52.486;13.424;2023-03-01T01:26:43;1.40;99.90
8676;DHT22;4375;52.486;13.424;2023-03-01T01:29:09;1.40;99.90
8676;DHT22;4375;52.486;13.424;2023-03-01T01:31:36;1.40;99.90
8676;DHT22;4375;52.486;13.424;2023-03-01T01:34:04;1.40;99.90
8676;DHT22;4375;52.486;13.424;2023-03-01T01:36:31;1.40;99.90
8676;DHT22;4375;52.486;13.424;2023-03-01T01:38:57;1.40;99.90
8676;DHT22;4375;52.486;13.424;2023-03-01T01:41:25;1.40;99.90
8676;DHT22;4375;52.486;13.424;2023-03-01T01:44:22;1.40;99.90
8676;DHT22;4375;52.486;13.424;2023-03-01T01:47:04;1.40;99.90
8676;DHT22;4375;52.486;13.424;2023-03-01T01:49:35;1.30;99.90
8676;DHT22;4375;52.486;13.424;2023-03-01T01:52:11;1.30;99.90
8676;DHT22;4375;52.486;13.424;2023-03-01T01:54:54;1.30;99.90
8676;DHT22;4375;52.486;13.424;2023-03-01T01:57:27;1.30;99.90
8676;DHT22;4375;52.486;13.424;2023-03-01T01:59:57;1.30;99.90
8676;DHT22;4375;52.486;13.424;2023-03-01T02:02:25;1.30;99.90
8676;DHT22;4375;52.486;13.424;2023-03-01T02:04:58;1.30;99.90
8676;DHT22;4375;52.486;13.424;2023-03-01T02:07:29;1.30;99.90
8676;DHT22;4375;52.486;13.424;2023-03-01T02:09:55;1.30;99.90
8676;DHT22;4375;52.486;13.424;2023-03-01T02:12:23;1.30;99.90
8676;DHT22;4375;52.486;13.424;2023-03-01T02:14:50;1.30;99.90
8676;DHT22;4375;52.486;13.424;2023-03-01T02:17:17;1.30;99.90
8676;DHT22;4375;52.486;13.424;2023-03-01T02:22:34;1.30;99.90
8676;DHT22;4375;52.486;13.424;2023-03-01T02:25:21;1.30;99.90
8676;DHT22;4375;52.486;13.424;2023-03-01T02:28:10;1.30;99.90
8676;DHT22;4375;52.486;13.424;2023-03-01T02:30:37;1.40;99.90
8676;DHT22;4375;52.486;13.424;2023-03-01T02:33:25;1.40;99.90
8676;DHT22;4375;52.486;13.424;2023-03-01T02:35:50;1.40;99.90
8676;DHT22;4375;52.486;13.424;2023-03-01T02:38:17;1.30;99.90
8676;DHT22;4375;52.486;13.424;2023-03-01T02:40:43;1.30;99.90
8676;DHT22;4375;52.486;13.424;2023-03-01T02:43:10;1.20;99.90
8676;DHT22;4375;52.486;13.424;2023-03-01T02:45:37;1.20;99.90
8676;DHT22;4375;52.486;13.424;2023-03-01T02:48:08;1.20;99.90
8676;DHT22;4375;52.486;13.424;2023-03-01T02:51:04;1.10;99.90
8676;DHT22;4375;52.486;13.424;2023-03-01T02:56:43;1.10;99.90
8676;DHT22;4375;52.486;13.424;2023-03-01T02:59:09;1.10;99.90
8676;DHT22;4375;52.486;13.424;2023-03-01T03:01:36;1.10;99.90
8676;DHT22;4375;52.486;13.424;2023-03-01T03:04:09;1.00;99.90
8676;DHT22;4375;52.486;13.424;2023-03-01T03:06:35;1.10;99.90
8676;DHT22;4375;52.486;13.424;2023-03-01T03:09:02;1.10;99.90
8676;DHT22;4375;52.486;13.424;2023-03-01T03:11:28;1.10;99.90
8676;DHT22;4375;52.486;13.424;2023-03-01T03:13:54;1.00;99.90
8676;DHT22;4375;52.486;13.424;2023-03-01T03:16:20;1.00;99.90
8676;DHT22;4375;52.486;13.424;2023-03-01T03:18:46;1.00;99.90
8676;DHT22;4375;52.486;13.424;2023-03-01T03:21:12;0.90;99.90
8676;DHT22;4375;52.486;13.424;2023-03-01T03:23:38;1.00;99.90
8676;DHT22;4375;52.486;13.424;2023-03-01T03:26:05;1.00;99.90
8676;DHT22;4375;52.486;13.424;2023-03-01T03:28:32;0.90;99.90
8676;DHT22;4375;52.486;13.424;2023-03-01T03:30:58;0.90;99.90
8676;DHT22;4375;52.486;13.424;2023-03-01T03:33:32;0.90;99.90
8676;DHT22;4375;52.486;13.424;2023-03-01T03:35:57;0.80;99.90
8676;DHT22;4375;52.486;13.424;2023-03-01T03:38:24;0.80;99.90
8676;DHT22;4375;52.486;13.424;2023-03-01T03:40:52;0.80;99.90
8676;DHT22;4375;52.486;13.424;2023-03-01T03:43:21;0.90;99.90
8676;DHT22;4375;52.486;13.424;2023-03-01T03:45:49;1.00;99.90
8676;DHT22;4375;52.486;13.424;2023-03-01T03:48:15;1.00;99.90
8676;DHT22;4375;52.486;13.424;2023-03-01T03:50:41;0.80;99.90
8676;DHT22;4375;52.486;13.424;2023-03-01T03:53:09;0.90;99.90
8676;DHT22;4375;52.486;13.424;2023-03-01T03:55:35;0.90;99.90
8676;DHT22;4375;52.486;13.424;2023-03-01T03:58:05;0.90;99.90
8676;DHT22;4375;52.486;13.424;2023-03-01T04:00:40;0.80;99.90
8676;DHT22;4375;52.486;13.424;2023-03-01T04:03:06;0.60;99.90
8676;DHT22;4375;52.486;13.424;2023-03-01T04:05:32;0.50;99.90
8676;DHT22;4375;52.486;13.424;2023-03-01T04:07:59;0.40;99.90
8676;DHT22;4375;52.486;13.424;2023-03-01T04:10:29;0.40;99.90
8676;DHT22;4375;52.486;13.424;2023-03-01T04:12:56;0.30;99.90
8676;DHT22;4375;52.486;13.424;2023-03-01T04:15:23;0.20;99.90
8676;DHT22;4375;52.486;13.424;2023-03-01T04:17:51;0.20;99.90
8676;DHT22;4375;52.486;13.424;2023-03-01T04:20:28;0.20;99.90
8676;DHT22;4375;52.486;13.424;2023-03-01T04:23:13;0.10;99.90
8676;DHT22;4375;52.486;13.424;2023-03-01T04:25:45;0.20;99.90
8676;DHT22;4375;52.486;13.424;2023-03-01T04:28:11;0.20;99.90
8676;DHT22;4375;52.486;13.424;2023-03-01T04:30:38;0.10;99.90
8676;DHT22;4375;52.486;13.424;2023-03-01T04:33:09;0.00;99.90
8676;DHT22;4375;52.486;13.424;2023-03-01T04:35:36;-0.10;99.90
8676;DHT22;4375;52.486;13.424;2023-03-01T04:38:03;-0.10;99.90
8676;DHT22;4375;52.486;13.424;2023-03-01T04:40:29;-0.20;99.90
8676;DHT22;4375;52.486;13.424;2023-03-01T04:42:54;-0.20;99.90
8676;DHT22;4375;52.486;13.424;2023-03-01T04:45:20;-0.10;99.90
8676;DHT22;4375;52.486;13.424;2023-03-01T04:47:46;-0.30;99.90
8676;DHT22;4375;52.486;13.424;2023-03-01T04:50:15;-0.30;99.90
8676;DHT22;4375;52.486;13.424;2023-03-01T04:52:41;-0.40;99.90
8676;DHT22;4375;52.486;13.424;2023-03-01T04:55:07;-0.40;99.90
8676;DHT22;4375;52.486;13.424;2023-03-01T04:57:33;-0.40;99.90
8676;DHT22;4375;52.486;13.424;2023-03-01T04:59:59;-0.40;99.90
8676;DHT22;4375;52.486;13.424;2023-03-01T05:02:25;-0.40;99.90
8676;DHT22;4375;52.486;13.424;2023-03-01T05:04:51;-0.50;99.90
8676;DHT22;4375;52.486;13.424;2023-03-01T05:07:17;-0.40;99.90
8676;DHT22;4375;52.486;13.424;2023-03-01T05:09:48;-0.40;99.90
8676;DHT22;4375;52.486;13.424;2023-03-01T05:12:14;-0.40;99.90
8676;DHT22;4375;52.486;13.424;2023-03-01T05:14:41;-0.30;99.90
8676;DHT22;4375;52.486;13.424;2023-03-01T05:17:07;-0.40;99.90
8676;DHT22;4375;52.486;13.424;2023-03-01T05:19:33;-0.40;99.90
8676;DHT22;4375;52.486;13.424;2023-03-01T05:21:59;-0.40;99.90
8676;DHT22;4375;52.486;13.424;2023-03-01T05:24:31;-0.30;99.90
8676;DHT22;4375;52.486;13.424;2023-03-01T05:26:58;-0.30;99.90
8676;DHT22;4375;52.486;13.424;2023-03-01T05:29:25;-0.10;99.90
8676;DHT22;4375;52.486;13.424;2023-03-01T05:31:58;0.00;99.90
8676;DHT22;4375;52.486;13.424;2023-03-01T05:34:33;-0.10;99.90
8676;DHT22;4375;52.486;13.424;2023-03-01T05:36:59;-0.20;99.90
8676;DHT22;4375;52.486;13.424;2023-03-01T05:39:26;-0.30;99.90
8676;DHT22;4375;52.486;13.424;2023-03-01T05:42:00;-0.40;99.90
8676;DHT22;4375;52.486;13.424;2023-03-01T05:44:27;-0.40;99.90
8676;DHT22;4375;52.486;13.424;2023-03-01T05:46:54;-0.50;99.90
8676;DHT22;4375;52.486;13.424;2023-03-01T05:51:50;-0.70;99.90
8676;DHT22;4375;52.486;13.424;2023-03-01T05:54:16;-0.60;99.90
8676;DHT22;4375;52.486;13.424;2023-03-01T05:56:41;-0.60;99.90
8676;DHT22;4375;52.486;13.424;2023-03-01T05:59:07;-0.50;99.90
8676;DHT22;4375;52.486;13.424;2023-03-01T06:01:33;-0.50;99.90
8676;DHT22;4375;52.486;13.424;2023-03-01T06:03:59;-0.50;99.90
8676;DHT22;4375;52.486;13.424;2023-03-01T06:06:25;-0.40;99.90
8676;DHT22;4375;52.486;13.424;2023-03-01T06:08:52;-0.30;99.90
8676;DHT22;4375;52.486;13.424;2023-03-01T06:11:17;-0.30;99.90
8676;DHT22;4375;52.486;13.424;2023-03-01T06:13:44;-0.30;99.90
8676;DHT22;4375;52.486;13.424;2023-03-01T06:16:10;-0.30;99.90
8676;DHT22;4375;52.486;13.424;2023-03-01T06:18:37;-0.30;99.90
8676;DHT22;4375;52.486;13.424;2023-03-01T06:21:03;-0.30;99.90
8676;DHT22;4375;52.486;13.424;2023-03-01T06:23:29;-0.20;99.90
8676;DHT22;4375;52.486;13.424;2023-03-01T06:25:55;-0.20;99.90
8676;DHT22;4375;52.486;13.424;2023-03-01T06:28:21;-0.20;99.90
8676;DHT22;4375;52.486;13.424;2023-03-01T06:30:47;-0.10;99.90
8676;DHT22;4375;52.486;13.424;2023-03-01T06:33:13;-0.10;99.90
8676;DHT22;4375;52.486;13.424;2023-03-01T06:35:39;0.00;99.90
8676;DHT22;4375;52.486;13.424;2023-03-01T06:38:05;0.10;99.90
8676;DHT22;4375;52.486;13.424;2023-03-01T06:40:32;0.00;99.90
8676;DHT22;4375;52.486;13.424;2023-03-01T06:42:58;0.10;99.90
8676;DHT22;4375;52.486;13.424;2023-03-01T06:45:24;0.20;99.90
8676;DHT22;4375;52.486;13.424;2023-03-01T06:47:50;0.20;99.90
8676;DHT22;4375;52.486;13.424;2023-03-01T06:50:17;0.20;99.90
8676;DHT22;4375;52.486;13.424;2023-03-01T06:52:43;0.30;99.90
8676;DHT22;4375;52.486;13.424;2023-03-01T06:55:10;0.30;99.90
8676;DHT22;4375;52.486;13.424;2023-03-01T06:57:36;0.30;99.90
8676;DHT22;4375;52.486;13.424;2023-03-01T07:00:03;0.40;99.90
8676;DHT22;4375;52.486;13.424;2023-03-01T07:02:29;0.50;99.90
8676;DHT22;4375;52.486;13.424;2023-03-01T07:04:54;0.60;99.90
8676;DHT22;4375;52.486;13.424;2023-03-01T07:07:20;0.60;99.90
8676;DHT22;4375;52.486;13.424;2023-03-01T07:09:46;0.60;99.90
8676;DHT22;4375;52.486;13.424;2023-03-01T07:12:11;0.80;99.90
8676;DHT22;4375;52.486;13.424;2023-03-01T07:14:37;0.80;99.90
8676;DHT22;4375;52.486;13.424;2023-03-01T07:17:03;0.90;99.90
8676;DHT22;4375;52.486;13.424;2023-03-01T07:19:28;1.00;99.90
8676;DHT22;4375;52.486;13.424;2023-03-01T07:21:54;1.10;99.90
8676;DHT22;4375;52.486;13.424;2023-03-01T07:24:21;1.10;99.90
8676;DHT22;4375;52.486;13.424;2023-03-01T07:26:51;1.10;99.90
8676;DHT22;4375;52.486;13.424;2023-03-01T07:29:17;1.20;99.90
8676;DHT22;4375;52.486;13.424;2023-03-01T07:31:43;1.20;99.90
8676;DHT22;4375;52.486;13.424;2023-03-01T07:34:09;1.30;99.90
8676;DHT22;4375;52.486;13.424;2023-03-01T07:36:36;1.40;99.90
8676;DHT22;4375;52.486;13.424;2023-03-01T07:39:02;1.40;99.90
8676;DHT22;4375;52.486;13.424;2023-03-01T07:41:29;1.50;99.90
8676;DHT22;4375;52.486;13.424;2023-03-01T07:43:55;1.50;99.90
8676;DHT22;4375;52.486;13.424;2023-03-01T07:46:20;1.70;99.90
8676;DHT22;4375;52.486;13.424;2023-03-01T07:48:46;1.70;99.90
8676;DHT22;4375;52.486;13.424;2023-03-01T07:51:12;1.80;99.90
8676;DHT22;4375;52.486;13.424;2023-03-01T07:53:39;1.80;99.90
8676;DHT22;4375;52.486;13.424;2023-03-01T07:56:07;1.90;99.90
8676;DHT22;4375;52.486;13.424;2023-03-01T07:58:42;2.00;99.90
8676;DHT22;4375;52.486;13.424;2023-03-01T08:01:11;2.10;99.90
8676;DHT22;4375;52.486;13.424;2023-03-01T08:03:37;2.00;99.90
8676;DHT22;4375;52.486;13.424;2023-03-01T08:06:06;2.10;99.90
8676;DHT22;4375;52.486;13.424;2023-03-01T08:08:32;2.10;99.90
8676;DHT22;4375;52.486;13.424;2023-03-01T08:10:59;2.20;99.90
8676;DHT22;4375;52.486;13.424;2023-03-01T08:13:26;2.40;99.90
8676;DHT22;4375;52.486;13.424;2023-03-01T08:15:52;2.50;99.90
8676;DHT22;4375;52.486;13.424;2023-03-01T08:18:19;2.60;99.90
8676;DHT22;4375;52.486;13.424;2023-03-01T08:20:45;2.60;99.90
8676;DHT22;4375;52.486;13.424;2023-03-01T08:23:11;2.70;99.90
8676;DHT22;4375;52.486;13.424;2023-03-01T08:25:37;2.70;99.90
8676;DHT22;4375;52.486;13.424;2023-03-01T08:28:04;2.90;99.90
8676;DHT22;4375;52.486;13.424;2023-03-01T08:30:30;3.10;99.90
8676;DHT22;4375;52.486;13.424;2023-03-01T08:32:55;3.10;99.90
8676;DHT22;4375;52.486;13.424;2023-03-01T08:35:21;3.20;99.90
8676;DHT22;4375;52.486;13.424;2023-03-01T08:37:47;3.20;99.90
8676;DHT22;4375;52.486;13.424;2023-03-01T08:40:13;3.30;99.90
8676;DHT22;4375;52.486;13.424;2023-03-01T08:42:40;3.30;99.90
8676;DHT22;4375;52.486;13.424;2023-03-01T08:45:06;3.40;99.90
8676;DHT22;4375;52.486;13.424;2023-03-01T08:47:32;3.50;99.90
8676;DHT22;4375;52.486;13.424;2023-03-01T08:50:00;3.50;99.90
8676;DHT22;4375;52.486;13.424;2023-03-01T08:52:26;3.60;99.90
8676;DHT22;4375;52.486;13.424;2023-03-01T08:54:53;3.90;99.90
8676;DHT22;4375;52.486;13.424;2023-03-01T08:57:18;5.10;99.90
8676;DHT22;4375;52.486;13.424;2023-03-01T08:59:44;6.70;99.90
8676;DHT22;4375;52.486;13.424;2023-03-01T09:02:13;8.20;99.90
8676;DHT22;4375;52.486;13.424;2023-03-01T09:04:39;9.60;99.90
8676;DHT22;4375;52.486;13.424;2023-03-01T09:07:05;10.40;99.90
8676;DHT22;4375;52.486;13.424;2023-03-01T09:09:31;10.60;99.90
8676;DHT22;4375;52.486;13.424;2023-03-01T09:11:56;9.60;99.90
8676;DHT22;4375;52.486;13.424;2023-03-01T09:14:22;8.90;99.90
8676;DHT22;4375;52.486;13.424;2023-03-01T09:16:48;8.40;99.90
8676;DHT22;4375;52.486;13.424;2023-03-01T09:19:14;7.70;99.90
8676;DHT22;4375;52.486;13.424;2023-03-01T09:21:40;7.20;99.90
8676;DHT22;4375;52.486;13.424;2023-03-01T09:24:12;6.80;99.90
8676;DHT22;4375;52.486;13.424;2023-03-01T09:26:38;6.70;99.90
8676;DHT22;4375;52.486;13.424;2023-03-01T09:29:04;6.70;99.90
8676;DHT22;4375;52.486;13.424;2023-03-01T09:31:30;6.80;99.90
8676;DHT22;4375;52.486;13.424;2023-03-01T09:33:55;6.70;99.90
8676;DHT22;4375;52.486;13.424;2023-03-01T09:36:23;6.60;99.90
8676;DHT22;4375;52.486;13.424;2023-03-01T09:38:51;6.70;99.90
8676;DHT22;4375;52.486;13.424;2023-03-01T09:41:38;6.30;99.90
8676;DHT22;4375;52.486;13.424;2023-03-01T09:46:54;6.30;99.90
8676;DHT22;4375;52.486;13.424;2023-03-01T09:49:28;6.40;99.90
8676;DHT22;4375;52.486;13.424;2023-03-01T09:52:01;6.20;99.90
8676;DHT22;4375;52.486;13.424;2023-03-01T09:54:31;6.10;99.90
8676;DHT22;4375;52.486;13.424;2023-03-01T10:03:00;6.40;99.90
8676;DHT22;4375;52.486;13.424;2023-03-01T10:05:35;6.50;99.90
8676;DHT22;4375;52.486;13.424;2023-03-01T10:10:38;6.10;99.90
8676;DHT22;4375;52.486;13.424;2023-03-01T10:13:18;6.10;99.90
8676;DHT22;4375;52.486;13.424;2023-03-01T10:16:01;5.90;99.90
8676;DHT22;4375;52.486;13.424;2023-03-01T10:18:31;5.80;99.90
8676;DHT22;4375;52.486;13.424;2023-03-01T10:21:17;5.60;99.90
8676;DHT22;4375;52.486;13.424;2023-03-01T10:23:44;5.80;99.90
8676;DHT22;4375;52.486;13.424;2023-03-01T10:26:37;5.90;99.90
8676;DHT22;4375;52.486;13.424;2023-03-01T10:29:10;5.90;99.90
8676;DHT22;4375;52.486;13.424;2023-03-01T10:31:46;6.00;99.90
8676;DHT22;4375;52.486;13.424;2023-03-01T10:34:31;6.10;99.90
8676;DHT22;4375;52.486;13.424;2023-03-01T10:37:19;6.20;99.90
8676;DHT22;4375;52.486;13.424;2023-03-01T10:40:04;6.20;99.90
8676;DHT22;4375;52.486;13.424;2023-03-01T10:42:45;6.30;99.90
8676;DHT22;4375;52.486;13.424;2023-03-01T10:45:30;6.10;99.90
8676;DHT22;4375;52.486;13.424;2023-03-01T10:48:20;6.00;99.90
8676;DHT22;4375;52.486;13.424;2023-03-01T10:50:51;5.90;99.90
8676;DHT22;4375;52.486;13.424;2023-03-01T10:56:12;6.20;99.90
8676;DHT22;4375;52.486;13.424;2023-03-01T10:59:02;6.00;99.90
8676;DHT22;4375;52.486;13.424;2023-03-01T11:01:29;5.90;99.90
8676;DHT22;4375;52.486;13.424;2023-03-01T11:06:33;6.10;99.90
8676;DHT22;4375;52.486;13.424;2023-03-01T11:09:14;6.10;99.90
8676;DHT22;4375;52.486;13.424;2023-03-01T11:11:41;6.10;99.90
8676;DHT22;4375;52.486;13.424;2023-03-01T11:14:20;6.00;99.90
8676;DHT22;4375;52.486;13.424;2023-03-01T11:16:48;6.00;99.90
8676;DHT22;4375;52.486;13.424;2023-03-01T11:19:19;6.10;99.90
8676;DHT22;4375;52.486;13.424;2023-03-01T11:24:38;6.40;99.90
8676;DHT22;4375;52.486;13.424;2023-03-01T11:27:21;6.40;99.90
8676;DHT22;4375;52.486;13.424;2023-03-01T11:30:05;6.30;99.90
8676;DHT22;4375;52.486;13.424;2023-03-01T11:35:27;6.20;99.30
8676;DHT22;4375;52.486;13.424;2023-03-01T11:41:07;6.40;98.20
8676;DHT22;4375;52.486;13.424;2023-03-01T11:49:17;6.70;97.60
8676;DHT22;4375;52.486;13.424;2023-03-01T11:54:47;6.60;96.50
8676;DHT22;4375;52.486;13.424;2023-03-01T12:00:30;6.60;94.70
8676;DHT22;4375;52.486;13.424;2023-03-01T12:03:25;6.70;94.20
8676;DHT22;4375;52.486;13.424;2023-03-01T12:25:31;7.20;92.30
8676;DHT22;4375;52.486;13.424;2023-03-01T12:31:05;7.40;92.20
8676;DHT22;4375;52.486;13.424;2023-03-01T12:34:03;7.40;92.20
8676;DHT22;4375;52.486;13.424;2023-03-01T12:39:39;7.50;90.70
8676;DHT22;4375;52.486;13.424;2023-03-01T12:45:07;7.50;90.40
8676;DHT22;4375;52.486;13.424;2023-03-01T12:50:47;7.70;87.90
8676;DHT22;4375;52.486;13.424;2023-03-01T12:55:49;7.80;86.50
8676;DHT22;4375;52.486;13.424;2023-03-01T13:07:05;7.60;84.00
8676;DHT22;4375;52.486;13.424;2023-03-01T13:09:40;7.70;84.50
8676;DHT22;4375;52.486;13.424;2023-03-01T13:18:01;7.80;82.10
8676;DHT22;4375;52.486;13.424;2023-03-01T13:20:49;7.70;82.90
8676;DHT22;4375;52.486;13.424;2023-03-01T13:23:25;7.80;83.60
8676;DHT22;4375;52.486;13.424;2023-03-01T13:44:35;7.60;80.80
8676;DHT22;4375;52.486;13.424;2023-03-01T13:50:01;7.60;81.10
8676;DHT22;4375;52.486;13.424;2023-03-01T13:55:06;7.60;80.10
8676;DHT22;4375;52.486;13.424;2023-03-01T13:57:41;7.60;80.30
8676;DHT22;4375;52.486;13.424;2023-03-01T14:03:10;7.60;79.70
8676;DHT22;4375;52.486;13.424;2023-03-01T14:05:36;7.60;79.00
8676;DHT22;4375;52.486;13.424;2023-03-01T14:08:22;7.50;79.60
8676;DHT22;4375;52.486;13.424;2023-03-01T14:11:07;7.60;80.10
8676;DHT22;4375;52.486;13.424;2023-03-01T14:16:31;7.60;80.80
8676;DHT22;4375;52.486;13.424;2023-03-01T14:21:34;7.50;81.60
8676;DHT22;4375;52.486;13.424;2023-03-01T14:24:00;7.50;80.70
8676;DHT22;4375;52.486;13.424;2023-03-01T14:26:26;7.50;80.60
8676;DHT22;4375;52.486;13.424;2023-03-01T14:28:52;7.50;79.80
8676;DHT22;4375;52.486;13.424;2023-03-01T14:31:37;7.50;79.90
8676;DHT22;4375;52.486;13.424;2023-03-01T14:34:03;7.50;81.10
8676;DHT22;4375;52.486;13.424;2023-03-01T14:36:31;7.50;81.80
8676;DHT22;4375;52.486;13.424;2023-03-01T14:38:57;7.60;81.80
8676;DHT22;4375;52.486;13.424;2023-03-01T14:41:35;7.60;82.60
8676;DHT22;4375;52.486;13.424;2023-03-01T14:44:05;7.70;83.00
8676;DHT22;4375;52.486;13.424;2023-03-01T14:46:36;7.70;83.30
8676;DHT22;4375;52.486;13.424;2023-03-01T14:49:23;7.70;83.60
8676;DHT22;4375;52.486;13.424;2023-03-01T14:51:59;7.60;84.40
8676;DHT22;4375;52.486;13.424;2023-03-01T14:54:44;7.50;84.00
8676;DHT22;4375;52.486;13.424;2023-03-01T14:57:19;7.60;84.90
8676;DHT22;4375;52.486;13.424;2023-03-01T14:59:48;7.60;86.40
8676;DHT22;4375;52.486;13.424;2023-03-01T15:02:19;7.60;89.30
8676;DHT22;4375;52.486;13.424;2023-03-01T15:05:05;7.60;90.00
8676;DHT22;4375;52.486;13.424;2023-03-01T15:07:35;7.70;89.80
8676;DHT22;4375;52.486;13.424;2023-03-01T15:10:04;7.60;90.10
8676;DHT22;4375;52.486;13.424;2023-03-01T15:12:37;7.60;90.40
8676;DHT22;4375;52.486;13.424;2023-03-01T15:15:41;7.60;90.70
8676;DHT22;4375;52.486;13.424;2023-03-01T15:18:18;7.60;91.20
8676;DHT22;4375;52.486;13.424;2023-03-01T15:20:45;7.60;92.00
8676;DHT22;4375;52.486;13.424;2023-03-01T15:23:26;7.60;92.40
8676;DHT22;4375;52.486;13.424;2023-03-01T15:25:53;7.70;92.40
8676;DHT22;4375;52.486;13.424;2023-03-01T15:28:28;7.70;92.50
8676;DHT22;4375;52.486;13.424;2023-03-01T15:31:21;7.60;92.70
8676;DHT22;4375;52.486;13.424;2023-03-01T15:33:50;7.60;92.90
8676;DHT22;4375;52.486;13.424;2023-03-01T15:38:57;7.60;93.70
8676;DHT22;4375;52.486;13.424;2023-03-01T15:41:27;7.60;94.00
8676;DHT22;4375;52.486;13.424;2023-03-01T15:43:57;7.60;94.10
8676;DHT22;4375;52.486;13.424;2023-03-01T15:46:33;7.60;94.30
8676;DHT22;4375;52.486;13.424;2023-03-01T15:49:51;7.60;94.00
8676;DHT22;4375;52.486;13.424;2023-03-01T15:51:53;7.70;94.10
8676;DHT22;4375;52.486;13.424;2023-03-01T15:54:22;7.70;94.20
8676;DHT22;4375;52.486;13.424;2023-03-01T15:56:49;7.70;94.20
8676;DHT22;4375;52.486;13.424;2023-03-01T15:59:16;7.60;94.30
8676;DHT22;4375;52.486;13.424;2023-03-01T16:01:42;7.50;94.50
8676;DHT22;4375;52.486;13.424;2023-03-01T16:04:13;7.50;94.40
8676;DHT22;4375;52.486;13.424;2023-03-01T16:06:52;7.50;94.30
8676;DHT22;4375;52.486;13.424;2023-03-01T16:09:24;7.50;94.40
8676;DHT22;4375;52.486;13.424;2023-03-01T16:11:51;7.40;94.70
8676;DHT22;4375;52.486;13.424;2023-03-01T16:14:18;7.40;94.70
8676;DHT22;4375;52.486;13.424;2023-03-01T16:16:44;7.40;94.60
8676;DHT22;4375;52.486;13.424;2023-03-01T16:19:10;7.40;94.80
8676;DHT22;4375;52.486;13.424;2023-03-01T16:21:36;7.30;95.20
8676;DHT22;4375;52.486;13.424;2023-03-01T16:24:03;7.30;95.50
8676;DHT22;4375;52.486;13.424;2023-03-01T16:26:29;7.30;95.80
8676;DHT22;4375;52.486;13.424;2023-03-01T16:28:56;7.20;96.00
8676;DHT22;4375;52.486;13.424;2023-03-01T16:31:23;7.20;96.20
8676;DHT22;4375;52.486;13.424;2023-03-01T16:33:49;7.30;96.00
8676;DHT22;4375;52.486;13.424;2023-03-01T16:36:18;7.20;96.30
8676;DHT22;4375;52.486;13.424;2023-03-01T16:38:44;7.20;96.10
8676;DHT22;4375;52.486;13.424;2023-03-01T16:41:15;7.20;96.30
8676;DHT22;4375;52.486;13.424;2023-03-01T16:43:41;7.20;96.60
8676;DHT22;4375;52.486;13.424;2023-03-01T16:46:16;7.20;96.70
8676;DHT22;4375;52.486;13.424;2023-03-01T16:48:42;7.20;96.70
8676;DHT22;4375;52.486;13.424;2023-03-01T16:51:08;7.20;96.70
8676;DHT22;4375;52.486;13.424;2023-03-01T16:53:35;7.20;97.00
8676;DHT22;4375;52.486;13.424;2023-03-01T16:56:02;7.10;97.10
8676;DHT22;4375;52.486;13.424;2023-03-01T16:58:28;7.10;97.50
8676;DHT22;4375;52.486;13.424;2023-03-01T17:00:55;7.10;97.40
8676;DHT22;4375;52.486;13.424;2023-03-01T17:03:23;7.10;97.80
8676;DHT22;4375;52.486;13.424;2023-03-01T17:05:50;7.00;98.00
8676;DHT22;4375;52.486;13.424;2023-03-01T17:08:16;6.90;98.30
8676;DHT22;4375;52.486;13.424;2023-03-01T17:10:42;6.90;98.70
8676;DHT22;4375;52.486;13.424;2023-03-01T17:13:09;6.80;98.90
8676;DHT22;4375;52.486;13.424;2023-03-01T17:15:38;6.80;99.20
8676;DHT22;4375;52.486;13.424;2023-03-01T17:18:05;6.70;99.50
8676;DHT22;4375;52.486;13.424;2023-03-01T17:20:30;6.70;99.80
8676;DHT22;4375;52.486;13.424;2023-03-01T17:22:56;6.70;99.90
8676;DHT22;4375;52.486;13.424;2023-03-01T17:25:23;6.60;99.90
8676;DHT22;4375;52.486;13.424;2023-03-01T17:27:48;6.60;99.90
8676;DHT22;4375;52.486;13.424;2023-03-01T17:30:14;6.50;99.90
8676;DHT22;4375;52.486;13.424;2023-03-01T17:32:40;6.50;99.90
8676;DHT22;4375;52.486;13.424;2023-03-01T17:35:07;6.50;99.90
8676;DHT22;4375;52.486;13.424;2023-03-01T17:37:33;6.40;99.90
8676;DHT22;4375;52.486;13.424;2023-03-01T17:39:58;6.40;99.90
8676;DHT22;4375;52.486;13.424;2023-03-01T17:42:24;6.40;99.90
8676;DHT22;4375;52.486;13.424;2023-03-01T17:44:50;6.40;99.90
8676;DHT22;4375;52.486;13.424;2023-03-01T17:47:15;6.30;99.90
8676;DHT22;4375;52.486;13.424;2023-03-01T17:49:41;6.30;99.90
8676;DHT22;4375;52.486;13.424;2023-03-01T17:52:07;6.30;99.90
8676;DHT22;4375;52.486;13.424;2023-03-01T17:54:32;6.30;99.90
8676;DHT22;4375;52.486;13.424;2023-03-01T17:56:58;6.30;99.90
8676;DHT22;4375;52.486;13.424;2023-03-01T17:59:24;6.20;99.90
8676;DHT22;4375;52.486;13.424;2023-03-01T18:01:58;6.20;99.90
8676;DHT22;4375;52.486;13.424;2023-03-01T18:04:26;6.10;99.90
8676;DHT22;4375;52.486;13.424;2023-03-01T18:06:52;6.10;99.90
8676;DHT22;4375;52.486;13.424;2023-03-01T18:09:17;6.00;99.90
8676;DHT22;4375;52.486;13.424;2023-03-01T18:11:43;6.00;99.90
8676;DHT22;4375;52.486;13.424;2023-03-01T18:14:09;5.90;99.90
8676;DHT22;4375;52.486;13.424;2023-03-01T18:16:35;5.90;99.90
8676;DHT22;4375;52.486;13.424;2023-03-01T18:19:01;5.90;99.90
8676;DHT22;4375;52.486;13.424;2023-03-01T18:21:28;5.80;99.90
8676;DHT22;4375;52.486;13.424;2023-03-01T18:23:53;5.80;99.90